Weather at Schaffen Airfield

Public forecast

Using degrees Celsius for public forecast. Weather courtesy of forecast.io.

Current aviation weather report (METAR) for Schaffen Airfield

Retrieved 2021/08/05 10:25 UTC (4 minutes ago):

EBDT 051025Z AUTO VRB02KT 9999 FEW031/// 21/13 Q1009 BLU

Aviation forecast (TAF) for Schaffen Airfield

Forecast is more than 12 hours old.

Retrieved 2021/05/27 19:57 UTC (2 months ago):

TAF EBDT 271541Z 2719/2807 30010KT 9999 SCT025 BKN035 BECMG 2720/2722 33005KT FEW020 PROB40 TEMPO 2802/2806 VRB03KT 1600 BR SCT002